createdAt,value
2023-05-16T00:00:35.335Z,101094.78
2023-05-16T00:01:38.233Z,101090.19
2023-05-16T00:02:40.803Z,101087.50
2023-05-16T00:03:43.377Z,101091.22
2023-05-16T00:04:46.215Z,101091.22
2023-05-16T00:05:48.122Z,101088.50
2023-05-16T00:06:49.985Z,101088.50
2023-05-16T00:07:51.789Z,101087.84
2023-05-16T00:08:53.612Z,101082.59
2023-05-16T00:09:55.581Z,101085.31
2023-05-16T00:10:57.394Z,101078.22
2023-05-16T00:11:59.661Z,101080.94
2023-05-16T00:13:02.081Z,101081.78
2023-05-16T00:14:04.090Z,101072.00
2023-05-16T00:15:12.750Z,101070.31
2023-05-16T00:16:15.177Z,101068.28
2023-05-16T00:17:17.664Z,101077.41
2023-05-16T00:18:19.655Z,101071.16
2023-05-16T00:19:22.083Z,101069.47
2023-05-16T00:20:25.146Z,101060.53
2023-05-16T00:21:27.321Z,101063.22
2023-05-16T00:22:29.203Z,101058.84
2023-05-16T00:23:31.589Z,101049.44
2023-05-16T00:24:34.303Z,101060.22
2023-05-16T00:25:36.686Z,101054.28
2023-05-16T00:26:38.527Z,101063.41
2023-05-16T00:27:40.402Z,101057.16
2023-05-16T00:28:44.282Z,101057.16
2023-05-16T00:29:46.084Z,101059.00
2023-05-16T00:30:48.210Z,101048.41
2023-05-16T00:31:51.207Z,101055.50
2023-05-16T00:32:55.159Z,101048.41
2023-05-16T00:33:58.649Z,101050.91
2023-05-16T00:35:00.796Z,101050.09
2023-05-16T00:36:02.686Z,101051.09
2023-05-16T00:37:05.344Z,101047.56
2023-05-16T00:38:07.460Z,101044.84
2023-05-16T00:39:11.562Z,101045.72
2023-05-16T00:40:13.544Z,101048.41
2023-05-16T00:41:18.240Z,101042.34
2023-05-16T00:42:21.230Z,101042.34
2023-05-16T00:43:23.123Z,101046.53
2023-05-16T00:44:26.028Z,101048.41
2023-05-16T00:45:28.449Z,101053.97
2023-05-16T00:46:31.290Z,101056.66
2023-05-16T00:47:33.276Z,101049.59
2023-05-16T00:48:35.108Z,101053.16
2023-05-16T00:49:36.968Z,101054.16
2023-05-16T00:50:39.078Z,101060.59
2023-05-16T00:51:41.257Z,101063.28
2023-05-16T00:52:43.293Z,101051.63
2023-05-16T00:53:45.401Z,101058.72
2023-05-16T00:54:47.274Z,101064.13
2023-05-16T00:55:49.169Z,101054.34
2023-05-16T00:56:51.267Z,101061.59
2023-05-16T00:57:53.358Z,101057.22
2023-05-16T00:58:55.167Z,101057.03
2023-05-16T00:59:57.219Z,101067.00
2023-05-16T01:00:59.058Z,101057.38
2023-05-16T01:02:01.465Z,101054.22
2023-05-16T01:03:05.650Z,101059.94
2023-05-16T01:04:08.119Z,101069.72
2023-05-16T01:05:10.223Z,101061.59
2023-05-16T01:06:12.503Z,101070.53
2023-05-16T01:07:14.639Z,101071.56
2023-05-16T01:08:16.422Z,101071.75
2023-05-16T01:09:19.499Z,101074.44
2023-05-16T01:10:21.383Z,101055.25
2023-05-16T01:11:34.622Z,101061.09
2023-05-16T01:13:20.866Z,101054.94
2023-05-16T01:14:26.935Z,101060.19
2023-05-16T01:15:32.836Z,101051.78
2023-05-16T01:16:45.847Z,101045.72
2023-05-16T01:18:02.040Z,101053.63
2023-05-16T01:19:42.121Z,101053.91
2023-05-16T01:20:57.064Z,101056.44
2023-05-16T01:22:17.280Z,101066.91
2023-05-16T01:23:24.958Z,101070.31
2023-05-16T01:24:32.892Z,101061.72
2023-05-16T01:26:00.834Z,101068.34
2023-05-16T01:27:06.173Z,101065.94
2023-05-16T01:28:10.145Z,101063.59
2023-05-16T01:29:12.593Z,101050.44
2023-05-16T01:30:19.169Z,101043.53
2023-05-16T01:31:22.361Z,101042.88
2023-05-16T01:32:24.842Z,101034.28
2023-05-16T01:33:26.743Z,101046.59
2023-05-16T01:34:28.544Z,101058.25
2023-05-16T01:35:31.104Z,101048.16
2023-05-16T01:36:36.024Z,101050.50
2023-05-16T01:37:52.804Z,101059.94
2023-05-16T01:39:45.955Z,101056.44
2023-05-16T01:40:56.721Z,101056.44
2023-05-16T01:42:09.194Z,101053.25
2023-05-16T01:43:17.339Z,101047.38
2023-05-16T01:44:40.628Z,101053.09
2023-05-16T01:45:51.480Z,101048.88
2023-05-16T01:46:58.402Z,101043.38
2023-05-16T01:48:10.841Z,101004.94
2023-05-16T01:49:17.516Z,101044.84
2023-05-16T01:50:22.516Z,101036.28
2023-05-16T01:51:30.678Z,101036.44
2023-05-16T01:52:38.830Z,101034.59
2023-05-16T01:53:40.718Z,101036.28
2023-05-16T01:54:47.975Z,101032.91
2023-05-16T01:55:52.800Z,101038.31
2023-05-16T01:56:56.266Z,101038.31
2023-05-16T01:57:59.771Z,101032.25
2023-05-16T01:59:02.711Z,101030.38
2023-05-16T02:00:08.665Z,101030.38
2023-05-16T02:01:16.018Z,101030.88
2023-05-16T02:02:20.965Z,101030.56
2023-05-16T02:03:22.830Z,101025.19
2023-05-16T02:04:24.940Z,101032.06
2023-05-16T02:05:26.940Z,101024.16
2023-05-16T02:06:29.002Z,101017.72
2023-05-16T02:07:32.101Z,101025.84
2023-05-16T02:08:34.189Z,101029.56
2023-05-16T02:09:36.346Z,101031.25
2023-05-16T02:10:40.138Z,101027.69
2023-05-16T02:11:42.064Z,101026.66
2023-05-16T02:12:43.898Z,101025.84
2023-05-16T02:13:45.866Z,101033.94
2023-05-16T02:14:47.802Z,101031.25
2023-05-16T02:15:49.730Z,101028.53
2023-05-16T02:16:51.569Z,101028.53
2023-05-16T02:17:53.487Z,101017.91
2023-05-16T02:18:55.487Z,101021.63
2023-05-16T02:19:57.532Z,101020.59
2023-05-16T02:20:59.305Z,101014.38
2023-05-16T02:22:01.134Z,101008.97
2023-05-16T02:23:03.425Z,101003.06
2023-05-16T02:24:07.270Z,101009.63
2023-05-16T02:25:09.945Z,101011.66
2023-05-16T02:26:11.746Z,101006.28
2023-05-16T02:27:13.607Z,101006.28
2023-05-16T02:28:15.387Z,101006.28
2023-05-16T02:29:17.256Z,100993.41
2023-05-16T02:30:19.139Z,101001.88
2023-05-16T02:31:28.055Z,101005.41
2023-05-16T02:32:29.999Z,100998.81
2023-05-16T02:33:32.167Z,100989.22
2023-05-16T02:34:33.952Z,100994.59
2023-05-16T02:35:37.110Z,100992.94
2023-05-16T02:36:38.915Z,100994.81
2023-05-16T02:37:41.570Z,100994.81
2023-05-16T02:38:43.335Z,100983.63
2023-05-16T02:39:45.115Z,100987.53
2023-05-16T02:40:50.827Z,100972.19
2023-05-16T02:41:53.013Z,100980.28
2023-05-16T02:42:54.787Z,100982.97
2023-05-16T02:43:56.584Z,100977.75
2023-05-16T02:44:59.931Z,100982.13
2023-05-16T02:46:04.898Z,100980.44
2023-05-16T02:47:07.006Z,100976.22
2023-05-16T02:48:09.028Z,100971.81
2023-05-16T02:49:10.918Z,100984.00
2023-05-16T02:50:13.829Z,100982.13
2023-05-16T02:51:15.788Z,100985.84
2023-05-16T02:52:17.762Z,100984.00
2023-05-16T02:53:19.673Z,100988.56
2023-05-16T02:54:22.517Z,100992.09
2023-05-16T02:55:24.902Z,100986.69
2023-05-16T02:56:27.650Z,100981.31
2023-05-16T02:57:29.464Z,100984.00
2023-05-16T02:58:31.242Z,100998.31
2023-05-16T02:59:33.044Z,100992.09
2023-05-16T03:00:34.824Z,100998.31
2023-05-16T03:01:36.713Z,100989.41
2023-05-16T03:02:40.288Z,100984.81
2023-05-16T03:03:43.100Z,100981.31
2023-05-16T03:04:45.143Z,100985.03
2023-05-16T03:05:47.529Z,100982.31
2023-05-16T03:06:51.220Z,100979.63
2023-05-16T03:07:53.041Z,100984.16
2023-05-16T03:08:54.836Z,100979.91
2023-05-16T03:09:56.685Z,100983.34
2023-05-16T03:10:58.533Z,100986.03
2023-05-16T03:12:00.328Z,100979.78
2023-05-16T03:13:02.384Z,100974.38
2023-05-16T03:14:04.260Z,100971.69
2023-05-16T03:15:07.888Z,100976.22
2023-05-16T03:16:11.341Z,100974.22
2023-05-16T03:17:13.158Z,100966.13
2023-05-16T03:18:14.917Z,100967.13
2023-05-16T03:19:18.063Z,100967.13
2023-05-16T03:20:20.060Z,100957.16
2023-05-16T03:21:21.905Z,100956.34
2023-05-16T03:22:23.777Z,100950.94
2023-05-16T03:23:25.770Z,100952.63
2023-05-16T03:24:27.668Z,100955.31
2023-05-16T03:25:29.752Z,100954.28
2023-05-16T03:26:31.712Z,100942.47
2023-05-16T03:27:33.497Z,100962.41
2023-05-16T03:28:35.686Z,100952.63
2023-05-16T03:29:37.657Z,100957.00
2023-05-16T03:30:39.637Z,100945.34
2023-05-16T03:31:42.414Z,100954.28
2023-05-16T03:32:46.205Z,100948.03
2023-05-16T03:33:47.986Z,100945.16
2023-05-16T03:34:49.898Z,100946.84
2023-05-16T03:35:52.341Z,100942.47
2023-05-16T03:36:54.467Z,100939.78
2023-05-16T03:37:56.536Z,100933.34
2023-05-16T03:38:58.435Z,100936.03
2023-05-16T03:40:00.998Z,100936.03
2023-05-16T03:41:02.831Z,100918.81
2023-05-16T03:42:04.885Z,100931.66
2023-05-16T03:43:06.719Z,100927.94
2023-05-16T03:44:08.534Z,100930.81
2023-05-16T03:45:12.240Z,100924.59
2023-05-16T03:46:14.640Z,100917.97
2023-05-16T03:47:16.525Z,100925.25
2023-05-16T03:48:18.322Z,100920.88
2023-05-16T03:49:28.517Z,100914.81
2023-05-16T03:50:30.354Z,100920.31
2023-05-16T03:51:33.273Z,100921.31
2023-05-16T03:52:35.068Z,100920.31
2023-05-16T03:53:37.908Z,100919.84
2023-05-16T03:54:39.743Z,100924.22
2023-05-16T03:55:41.551Z,100917.97
2023-05-16T03:56:43.367Z,100920.66
2023-05-16T03:57:46.735Z,100923.38
2023-05-16T03:58:48.608Z,100917.78
2023-05-16T03:59:50.444Z,100919.47
2023-05-16T04:00:52.198Z,100914.06
2023-05-16T04:01:54.001Z,100914.06
2023-05-16T04:02:56.164Z,100916.78
2023-05-16T04:03:58.069Z,100912.41
2023-05-16T04:04:59.841Z,100906.78
2023-05-16T04:06:01.846Z,100913.06
2023-05-16T04:07:03.892Z,100901.09
2023-05-16T04:08:05.830Z,100903.28
2023-05-16T04:09:07.690Z,100914.06
2023-05-16T04:10:10.198Z,100905.97
2023-05-16T04:11:12.265Z,100904.94
2023-05-16T04:12:14.073Z,100910.34
2023-05-16T04:13:16.286Z,100900.56
2023-05-16T04:14:18.153Z,100906.63
2023-05-16T04:15:19.950Z,100904.94
2023-05-16T04:16:21.839Z,100905.78
2023-05-16T04:17:23.721Z,100905.78
2023-05-16T04:18:25.551Z,100903.94
2023-05-16T04:19:27.379Z,100906.63
2023-05-16T04:20:30.265Z,100906.63
2023-05-16T04:21:33.332Z,100900.00
2023-05-16T04:22:35.217Z,100896.66
2023-05-16T04:23:36.990Z,100903.72
2023-05-16T04:24:38.769Z,100891.09
2023-05-16T04:25:41.332Z,100892.94
2023-05-16T04:26:43.101Z,100891.91
2023-05-16T04:27:45.049Z,100889.19
2023-05-16T04:28:46.852Z,100887.34
2023-05-16T04:29:48.639Z,100890.06
2023-05-16T04:30:50.682Z,100891.09
2023-05-16T04:31:52.473Z,100884.66
2023-05-16T04:32:54.455Z,100884.44
2023-05-16T04:33:58.058Z,100884.00
2023-05-16T04:35:00.140Z,100889.69
2023-05-16T04:36:02.625Z,100887.00
2023-05-16T04:37:05.648Z,100880.94
2023-05-16T04:38:07.449Z,100884.28
2023-05-16T04:39:09.334Z,100877.88
2023-05-16T04:40:13.184Z,100873.47
2023-05-16T04:41:15.197Z,100873.47
2023-05-16T04:42:17.282Z,100879.72
2023-05-16T04:43:20.547Z,100876.56
2023-05-16T04:44:22.308Z,100877.88
2023-05-16T04:45:24.136Z,100876.19
2023-05-16T04:46:26.423Z,100878.88
2023-05-16T04:47:28.336Z,100878.88
2023-05-16T04:48:31.025Z,100878.03
2023-05-16T04:49:32.836Z,100875.16
2023-05-16T04:50:34.675Z,100875.31
2023-05-16T04:51:36.515Z,100880.56
2023-05-16T04:52:38.439Z,100871.59
2023-05-16T04:53:40.357Z,100875.16
2023-05-16T04:54:42.561Z,100869.75
2023-05-16T04:55:44.383Z,100879.53
2023-05-16T04:56:46.179Z,100865.38
2023-05-16T04:57:47.977Z,100868.06
2023-05-16T04:58:49.750Z,100876.84
2023-05-16T04:59:51.515Z,100868.72
2023-05-16T05:00:53.424Z,100871.44
2023-05-16T05:01:55.264Z,100863.34
2023-05-16T05:02:57.097Z,100876.84
2023-05-16T05:03:58.945Z,100832.41
2023-05-16T05:05:00.920Z,100866.84
2023-05-16T05:06:02.744Z,100866.03
2023-05-16T05:07:04.778Z,100863.34
2023-05-16T05:08:07.523Z,100866.84
2023-05-16T05:09:09.838Z,100864.00
2023-05-16T05:10:11.890Z,100868.38
2023-05-16T05:11:13.738Z,100857.28
2023-05-16T05:12:15.645Z,100866.31
2023-05-16T05:13:17.432Z,100874.06
2023-05-16T05:14:19.239Z,100860.75
2023-05-16T05:15:21.044Z,100867.47
2023-05-16T05:16:22.841Z,100873.31
2023-05-16T05:17:26.167Z,100872.28
2023-05-16T05:18:28.058Z,100870.06
2023-05-16T05:19:29.922Z,100868.84
2023-05-16T05:20:31.763Z,100869.34
2023-05-16T05:21:33.533Z,100872.50
2023-05-16T05:22:35.291Z,100864.19
2023-05-16T05:23:37.201Z,100862.00
2023-05-16T05:24:39.303Z,100867.84
2023-05-16T05:25:41.232Z,100866.66
2023-05-16T05:26:43.148Z,100864.38
2023-05-16T05:27:44.984Z,100860.50
2023-05-16T05:28:53.901Z,100868.06
2023-05-16T05:30:03.991Z,100864.44
2023-05-16T05:31:06.063Z,100862.38
2023-05-16T05:32:08.608Z,100854.91
2023-05-16T05:33:11.909Z,100861.16
2023-05-16T05:34:13.788Z,100855.19
2023-05-16T05:35:15.871Z,100861.06
2023-05-16T05:36:17.736Z,100854.47
2023-05-16T05:37:19.652Z,100862.19
2023-05-16T05:38:21.806Z,100849.69
2023-05-16T05:39:24.751Z,100853.50
2023-05-16T05:40:26.521Z,100853.75
2023-05-16T05:41:28.534Z,100846.50
2023-05-16T05:42:30.289Z,100849.66
2023-05-16T05:43:32.061Z,100851.16
2023-05-16T05:44:33.931Z,100847.25
2023-05-16T05:45:35.806Z,100842.38
2023-05-16T05:46:37.991Z,100844.16
2023-05-16T05:47:39.988Z,100851.03
2023-05-16T05:48:41.855Z,100848.97
2023-05-16T05:49:43.821Z,100852.53
2023-05-16T05:50:45.742Z,100849.63
2023-05-16T05:51:47.599Z,100852.97
2023-05-16T05:52:49.452Z,100849.25
2023-05-16T05:53:51.754Z,100845.50
2023-05-16T05:54:53.616Z,100846.16
2023-05-16T05:55:55.403Z,100839.72
2023-05-16T05:56:57.974Z,100844.28
2023-05-16T05:57:59.841Z,100845.13
2023-05-16T05:59:01.704Z,100843.91
2023-05-16T06:00:05.141Z,100841.03
2023-05-16T06:01:11.326Z,100842.72
2023-05-16T06:02:14.160Z,100838.13
2023-05-16T06:03:16.705Z,100848.59
2023-05-16T06:04:19.793Z,100842.34
2023-05-16T06:05:21.844Z,100839.44
2023-05-16T06:06:23.771Z,100832.19
2023-05-16T06:07:25.951Z,100837.59
2023-05-16T06:08:27.748Z,100844.03
2023-05-16T06:09:29.554Z,100835.69
2023-05-16T06:10:31.377Z,100823.94
2023-05-16T06:11:33.539Z,100833.00
2023-05-16T06:12:35.439Z,100827.41
2023-05-16T06:13:37.263Z,100832.81
2023-05-16T06:14:39.484Z,100827.41
2023-05-16T06:15:41.361Z,100823.66
2023-05-16T06:16:43.652Z,100825.53
2023-05-16T06:17:45.552Z,100823.66
2023-05-16T06:18:48.934Z,100819.06
2023-05-16T06:19:50.829Z,100815.56
2023-05-16T06:20:53.247Z,100817.22
2023-05-16T06:21:55.091Z,100807.16
2023-05-16T06:22:56.921Z,100814.50
2023-05-16T06:23:59.043Z,100807.81
2023-05-16T06:25:00.943Z,100813.47
2023-05-16T06:26:03.853Z,100809.50
2023-05-16T06:27:06.008Z,100808.47
2023-05-16T06:28:08.141Z,100811.59
2023-05-16T06:29:10.011Z,100808.06
2023-05-16T06:30:12.020Z,100804.50
2023-05-16T06:31:13.955Z,100792.88
2023-05-16T06:32:15.871Z,100800.78
2023-05-16T06:33:18.688Z,100788.28
2023-05-16T06:34:27.571Z,100781.56
2023-05-16T06:35:29.561Z,100792.47
2023-05-16T06:36:31.588Z,100785.38
2023-05-16T06:37:33.347Z,100795.34
2023-05-16T06:38:35.136Z,100781.00
2023-05-16T06:39:37.166Z,100783.72
2023-05-16T06:40:38.921Z,100779.13
2023-05-16T06:41:40.897Z,100779.34
2023-05-16T06:42:50.145Z,100776.22
2023-05-16T06:43:52.462Z,100769.16
2023-05-16T06:44:54.279Z,100773.72
2023-05-16T06:45:56.184Z,100770.19
2023-05-16T06:46:58.984Z,100767.47
2023-05-16T06:48:01.238Z,100762.44
2023-05-16T06:49:03.390Z,100774.56
2023-05-16T06:50:05.909Z,100773.72
2023-05-16T06:51:07.796Z,100771.22
2023-05-16T06:52:10.026Z,100767.47
2023-05-16T06:53:12.161Z,100774.56
2023-05-16T06:54:13.972Z,100775.38
2023-05-16T06:55:16.006Z,100779.13
2023-05-16T06:56:17.821Z,100782.69
2023-05-16T06:57:19.629Z,100777.25
2023-05-16T06:58:21.828Z,100778.31
2023-05-16T06:59:24.589Z,100778.31
2023-05-16T07:00:27.221Z,100777.25
2023-05-16T07:01:29.333Z,100771.84
2023-05-16T07:02:31.352Z,100774.56
2023-05-16T07:03:33.314Z,100766.19
2023-05-16T07:04:37.910Z,100769.16
2023-05-16T07:05:39.784Z,100772.50
2023-05-16T07:06:41.685Z,100774.34
2023-05-16T07:07:43.542Z,100769.16
2023-05-16T07:08:45.380Z,100770.81
2023-05-16T07:09:47.305Z,100769.16
2023-05-16T07:10:49.167Z,100770.19
2023-05-16T07:11:51.002Z,100769.16
2023-05-16T07:12:52.937Z,100769.97
2023-05-16T07:13:54.828Z,100771.84
2023-05-16T07:14:56.705Z,100774.56
2023-05-16T07:15:58.799Z,100768.28
2023-05-16T07:17:00.998Z,100772.88
2023-05-16T07:18:02.893Z,100769.16
2023-05-16T07:19:04.836Z,100763.72
2023-05-16T07:20:08.257Z,100770.19
2023-05-16T07:21:10.084Z,100763.72
2023-05-16T07:22:12.336Z,100774.56
2023-05-16T07:23:14.204Z,100768.28
2023-05-16T07:24:16.042Z,100746.59
2023-05-16T07:25:18.819Z,100752.16
2023-05-16T07:26:23.241Z,100753.94
2023-05-16T07:27:25.058Z,100752.06
2023-05-16T07:28:26.887Z,100742.00
2023-05-16T07:29:30.440Z,100738.09
2023-05-16T07:30:32.287Z,100751.22
2023-05-16T07:31:34.167Z,100739.38
2023-05-16T07:32:36.182Z,100753.94
2023-05-16T07:33:38.081Z,100748.53
2023-05-16T07:34:40.077Z,100739.56
2023-05-16T07:35:41.935Z,100746.63
2023-05-16T07:36:43.764Z,100746.63
2023-05-16T07:37:45.757Z,100742.91
2023-05-16T07:38:47.609Z,100736.66
2023-05-16T07:39:49.656Z,100736.66
2023-05-16T07:40:51.699Z,100734.78
2023-05-16T07:41:53.528Z,100731.03
2023-05-16T07:42:55.952Z,100731.25
2023-05-16T07:43:57.865Z,100733.75
2023-05-16T07:44:59.717Z,100736.47
2023-05-16T07:46:02.836Z,100730.22
2023-05-16T07:47:05.131Z,100731.91
2023-05-16T07:48:06.977Z,100729.19
2023-05-16T07:49:08.871Z,100728.34
2023-05-16T07:50:11.213Z,100734.59
2023-05-16T07:51:13.132Z,100730.00
2023-05-16T07:52:14.940Z,100724.16
2023-05-16T07:53:16.848Z,100736.28
2023-05-16T07:54:18.706Z,100734.59
2023-05-16T07:55:22.241Z,100740.00
2023-05-16T07:56:24.127Z,100741.69
2023-05-16T07:57:26.238Z,100736.28
2023-05-16T07:58:28.219Z,100742.72
2023-05-16T07:59:30.142Z,100747.09
2023-05-16T08:00:32.141Z,100741.69
2023-05-16T08:01:33.970Z,100735.44
2023-05-16T08:02:36.260Z,100730.00
2023-05-16T08:03:38.528Z,100730.88
2023-05-16T08:04:40.499Z,100726.47
2023-05-16T08:05:42.709Z,100731.91
2023-05-16T08:06:44.567Z,100727.50
2023-05-16T08:07:46.409Z,100729.19
2023-05-16T08:08:48.205Z,100724.81
2023-05-16T08:09:50.150Z,100723.78
2023-05-16T08:10:51.969Z,100719.41
2023-05-16T08:11:53.845Z,100725.63
2023-05-16T08:12:55.856Z,100733.75
2023-05-16T08:13:57.693Z,100735.63
2023-05-16T08:14:59.569Z,100736.66
2023-05-16T08:16:01.566Z,100735.63
2023-05-16T08:17:03.556Z,100727.25
2023-05-16T08:18:13.925Z,100736.47
2023-05-16T08:19:15.905Z,100731.69
2023-05-16T08:20:17.800Z,100726.66
2023-05-16T08:21:19.678Z,100722.09
2023-05-16T08:22:21.712Z,100725.84
2023-05-16T08:23:23.541Z,100729.59
2023-05-16T08:24:25.414Z,100738.53
2023-05-16T08:25:27.937Z,100739.38
2023-05-16T08:26:29.960Z,100733.97
2023-05-16T08:27:31.792Z,100710.75
2023-05-16T08:28:33.796Z,100726.66
2023-05-16T08:29:35.733Z,100714.16
2023-05-16T08:30:37.544Z,100718.53
2023-05-16T08:31:39.893Z,100716.06
2023-05-16T08:32:41.940Z,100722.91
2023-05-16T08:33:43.779Z,100716.88
2023-05-16T08:34:45.745Z,100710.19
2023-05-16T08:35:49.529Z,100714.16
2023-05-16T08:36:51.420Z,100715.00
2023-05-16T08:37:53.289Z,100707.72
2023-05-16T08:38:55.184Z,100710.41
2023-05-16T08:39:57.364Z,100710.41
2023-05-16T08:40:59.193Z,100695.81
2023-05-16T08:42:01.187Z,100706.91
2023-05-16T08:43:03.457Z,100704.19
2023-05-16T08:44:05.537Z,100697.69
2023-05-16T08:45:08.353Z,100697.50
2023-05-16T08:46:10.982Z,100706.03
2023-05-16T08:47:21.771Z,100707.94
2023-05-16T08:48:24.466Z,100707.53
2023-05-16T08:49:28.742Z,100698.78
2023-05-16T08:50:32.190Z,100696.88
2023-05-16T08:51:38.462Z,100703.34
2023-05-16T08:52:42.330Z,100697.75
2023-05-16T08:53:52.688Z,100691.47
2023-05-16T08:55:09.359Z,100697.53
2023-05-16T08:56:13.628Z,100696.31
2023-05-16T08:57:16.531Z,100680.47
2023-05-16T08:58:19.698Z,100684.00
2023-05-16T08:59:21.878Z,100684.22
2023-05-16T09:00:24.816Z,100683.56
2023-05-16T09:01:27.124Z,100677.50
2023-05-16T09:02:29.378Z,100682.53
2023-05-16T09:03:31.570Z,100668.38
2023-05-16T09:04:33.671Z,100675.00
2023-05-16T09:05:36.023Z,100668.75
2023-05-16T09:06:38.003Z,100677.50
2023-05-16T09:07:40.725Z,100665.84
2023-05-16T09:08:42.904Z,100662.09
2023-05-16T09:09:44.912Z,100659.59
2023-05-16T09:10:46.750Z,100662.09
2023-05-16T09:11:49.077Z,100656.91
2023-05-16T09:12:51.027Z,100662.31
2023-05-16T09:13:52.832Z,100660.44
2023-05-16T09:14:56.147Z,100651.28
2023-05-16T09:16:13.865Z,100652.13
2023-05-16T09:18:22.055Z,100638.59
2023-05-16T09:19:23.943Z,100620.81
2023-05-16T09:20:26.663Z,100645.03
2023-05-16T09:21:31.968Z,100632.53
2023-05-16T09:22:33.883Z,100632.31
2023-05-16T09:23:37.394Z,100630.66
2023-05-16T09:24:44.449Z,100624.81
2023-05-16T09:25:46.348Z,100627.94
2023-05-16T09:26:48.323Z,100623.38
2023-05-16T09:27:58.109Z,100617.97
2023-05-16T09:28:59.979Z,100617.75
2023-05-16T09:30:02.309Z,100619.66
2023-05-16T09:31:04.293Z,100612.56
2023-05-16T09:32:24.749Z,100603.00
2023-05-16T09:33:30.034Z,100608.41
2023-05-16T09:34:31.832Z,100603.00
2023-05-16T09:36:39.222Z,100590.44
2023-05-16T09:37:56.275Z,100601.53
2023-05-16T09:38:58.285Z,100600.94
2023-05-16T09:40:00.089Z,100592.59
2023-05-16T09:41:02.486Z,100587.81
2023-05-16T09:42:04.512Z,100594.25
2023-05-16T09:43:07.969Z,100579.88
2023-05-16T09:44:09.846Z,100572.59
2023-05-16T09:45:13.982Z,100571.31
2023-05-16T09:46:16.338Z,100578.84
2023-05-16T09:47:19.614Z,100573.41
2023-05-16T09:48:22.820Z,100573.41
2023-05-16T09:49:25.150Z,100560.94
2023-05-16T09:50:27.039Z,100566.16
2023-05-16T09:51:29.017Z,100563.44
2023-05-16T09:52:31.292Z,100557.19
2023-05-16T09:53:33.975Z,100553.66
2023-05-16T09:54:36.209Z,100551.78
2023-05-16T09:55:38.028Z,100557.19
2023-05-16T09:56:54.599Z,100554.28
2023-05-16T09:57:56.568Z,100548.66
2023-05-16T09:58:58.377Z,100552.22
2023-05-16T10:00:02.098Z,100544.50
2023-05-16T10:01:07.997Z,100550.56
2023-05-16T10:02:10.853Z,100544.28
2023-05-16T10:03:13.805Z,100549.69
2023-05-16T10:04:16.415Z,100544.06
2023-05-16T10:05:18.854Z,100536.78
2023-05-16T10:06:21.190Z,100548.88
2023-05-16T10:07:23.341Z,100562.41
2023-05-16T10:08:26.846Z,100568.88
2023-05-16T10:09:29.854Z,100575.09
2023-05-16T10:10:33.834Z,100575.09
2023-05-16T10:11:36.020Z,100573.25
2023-05-16T10:12:38.531Z,100574.28
2023-05-16T10:13:40.609Z,100584.06
2023-05-16T10:14:44.009Z,100588.44
2023-05-16T10:15:47.216Z,100584.88
2023-05-16T10:16:50.025Z,100574.91
2023-05-16T10:17:57.170Z,100556.75
2023-05-16T10:19:00.397Z,100572.19
2023-05-16T10:20:07.005Z,100571.13
2023-05-16T10:21:14.834Z,100586.38
2023-05-16T10:22:17.946Z,100572.63
2023-05-16T10:23:21.614Z,100566.38
2023-05-16T10:24:29.530Z,100570.13
2023-05-16T10:25:36.771Z,100577.84
2023-05-16T10:26:38.621Z,100580.56
2023-05-16T10:27:41.686Z,100539.81
2023-05-16T10:28:44.190Z,100557.63
2023-05-16T10:29:54.064Z,100563.69
2023-05-16T10:30:57.637Z,100568.06
2023-05-16T10:31:59.851Z,100558.03
2023-05-16T10:33:02.799Z,100562.00
2023-05-16T10:34:04.777Z,100565.53
2023-05-16T10:35:07.136Z,100564.72
2023-05-16T10:36:10.132Z,100564.72
2023-05-16T10:37:12.234Z,100558.66
2023-05-16T10:38:18.675Z,100567.59
2023-05-16T10:39:22.116Z,100560.13
2023-05-16T10:40:27.602Z,100552.22
2023-05-16T10:41:30.067Z,100559.31
2023-05-16T10:42:35.589Z,100558.44
2023-05-16T10:43:37.462Z,100547.44
2023-05-16T10:44:40.458Z,100544.91
2023-05-16T10:45:43.403Z,100536.81
2023-05-16T10:46:48.080Z,100534.06
2023-05-16T10:47:56.635Z,100559.31
2023-05-16T10:48:58.983Z,100554.72
2023-05-16T10:50:01.012Z,100547.44
2023-05-16T10:51:04.333Z,100555.97
2023-05-16T10:52:08.336Z,100559.31
2023-05-16T10:53:21.332Z,100558.28
2023-05-16T10:54:34.770Z,100564.97
2023-05-16T10:55:36.749Z,100554.13
2023-05-16T10:56:38.719Z,100555.56
2023-05-16T10:57:40.544Z,100558.28
2023-05-16T10:58:43.167Z,100553.91
2023-05-16T10:59:49.882Z,100554.72
2023-05-16T11:01:32.087Z,100542.25
2023-05-16T11:02:42.578Z,100552.28
2023-05-16T11:03:57.179Z,100549.56
2023-05-16T11:05:01.153Z,100543.53
2023-05-16T11:06:04.725Z,100542.91
2023-05-16T11:07:07.591Z,100541.63
2023-05-16T11:08:09.411Z,100539.31
2023-05-16T11:09:14.167Z,100538.91
2023-05-16T11:10:16.768Z,100540.81
2023-05-16T11:11:52.586Z,100538.34
2023-05-16T11:12:55.655Z,100533.97
2023-05-16T11:14:03.299Z,100539.16
2023-05-16T11:15:23.760Z,100531.47
2023-05-16T11:16:29.767Z,100533.56
2023-05-16T11:17:41.442Z,100531.88
2023-05-16T11:18:51.253Z,100528.31
2023-05-16T11:19:59.524Z,100526.47
2023-05-16T11:21:04.736Z,100529.19
2023-05-16T11:22:10.479Z,100524.97
2023-05-16T11:23:18.127Z,100528.31
2023-05-16T11:24:30.539Z,100523.94
2023-05-16T11:25:41.398Z,100525.63
2023-05-16T11:26:43.465Z,100527.28
2023-05-16T11:28:50.085Z,100521.25
2023-05-16T11:29:53.222Z,100522.28
2023-05-16T11:30:57.914Z,100522.28
2023-05-16T11:32:01.561Z,100516.88
2023-05-16T11:33:03.471Z,100510.81
2023-05-16T11:34:05.944Z,100520.59
2023-05-16T11:35:14.248Z,100516.44
2023-05-16T11:36:16.851Z,100522.28
2023-05-16T11:37:20.285Z,100527.06
2023-05-16T11:38:22.454Z,100513.53
2023-05-16T11:39:27.563Z,100527.91
2023-05-16T11:40:29.432Z,100518.31
2023-05-16T11:41:32.891Z,100517.47
2023-05-16T11:42:36.759Z,100523.91
2023-05-16T11:43:43.771Z,100524.75
2023-05-16T11:44:45.934Z,100517.03
2023-05-16T11:45:56.066Z,100527.47
2023-05-16T11:46:58.093Z,100515.16
2023-05-16T11:48:06.460Z,100517.66
2023-05-16T11:49:12.908Z,100513.94
2023-05-16T11:50:24.695Z,100516.63
2023-05-16T11:51:26.793Z,100517.28
2023-05-16T11:52:28.636Z,100520.19
2023-05-16T11:53:30.591Z,100517.66
2023-05-16T11:54:34.653Z,100517.03
2023-05-16T11:56:42.822Z,100514.31
2023-05-16T11:57:44.739Z,100507.25
2023-05-16T11:58:47.327Z,100516.19
2023-05-16T11:59:49.537Z,100489.44
2023-05-16T12:00:51.917Z,100511.00
2023-05-16T12:01:53.827Z,100518.25
2023-05-16T12:03:03.218Z,100516.59
2023-05-16T12:04:12.727Z,100520.78
2023-05-16T12:05:19.152Z,100525.97
2023-05-16T12:06:21.033Z,100527.88
2023-05-16T12:07:28.507Z,100526.38
2023-05-16T12:08:30.863Z,100520.78
2023-05-16T12:09:32.685Z,100532.63